createdAt,value
2023-05-16T00:02:24.373Z,0.90
2023-05-16T00:04:51.816Z,1.08
2023-05-16T00:07:18.586Z,1.10
2023-05-16T00:09:45.311Z,1.00
2023-05-16T00:12:11.969Z,0.70
2023-05-16T00:14:38.631Z,0.60
2023-05-16T00:17:11.825Z,0.68
2023-05-16T00:19:39.249Z,0.60
2023-05-16T00:22:06.399Z,0.38
2023-05-16T00:24:34.285Z,0.40
2023-05-16T00:27:01.164Z,0.50
2023-05-16T00:29:27.807Z,0.43
2023-05-16T00:31:54.496Z,0.47
2023-05-16T00:34:22.762Z,0.70
2023-05-16T00:36:53.415Z,0.50
2023-05-16T00:39:20.103Z,0.52
2023-05-16T00:41:46.873Z,0.52
2023-05-16T00:44:13.654Z,0.60
2023-05-16T00:46:40.578Z,0.70
2023-05-16T00:49:09.090Z,0.82
2023-05-16T00:51:37.552Z,0.70
2023-05-16T00:54:05.801Z,0.80
2023-05-16T00:56:33.177Z,0.98
2023-05-16T00:59:00.528Z,1.40
2023-05-16T01:01:29.131Z,1.35
2023-05-16T01:03:56.966Z,1.33
2023-05-16T01:06:23.975Z,1.20
2023-05-16T01:08:50.923Z,1.48
2023-05-16T01:11:46.774Z,1.50
2023-05-16T01:14:27.725Z,1.65
2023-05-16T01:17:21.175Z,1.67
2023-05-16T01:19:53.721Z,1.42
2023-05-16T01:22:29.675Z,1.48
2023-05-16T01:25:21.745Z,1.40
2023-05-16T01:27:49.150Z,1.73
2023-05-16T01:30:18.280Z,1.35
2023-05-16T01:32:45.971Z,1.77
2023-05-16T01:35:15.798Z,1.73
2023-05-16T01:38:04.069Z,1.55
2023-05-16T01:40:45.636Z,1.40
2023-05-16T01:43:16.860Z,1.65
2023-05-16T01:45:51.021Z,1.80
2023-05-16T01:48:22.758Z,1.38
2023-05-16T01:50:56.002Z,1.50
2023-05-16T01:53:29.171Z,1.50
2023-05-16T01:55:58.257Z,1.80
2023-05-16T01:58:29.522Z,1.58
2023-05-16T02:01:03.773Z,1.52
2023-05-16T02:03:34.863Z,1.80
2023-05-16T02:06:01.787Z,1.77
2023-05-16T02:08:29.276Z,2.67
2023-05-16T02:10:55.911Z,1.98
2023-05-16T02:13:22.606Z,1.73
2023-05-16T02:15:49.276Z,1.63
2023-05-16T02:18:16.694Z,1.77
2023-05-16T02:20:43.316Z,2.33
2023-05-16T02:23:09.959Z,1.85
2023-05-16T02:25:36.657Z,2.42
2023-05-16T02:28:03.375Z,2.05
2023-05-16T02:30:30.146Z,2.05
2023-05-16T02:32:56.865Z,2.22
2023-05-16T02:35:24.498Z,2.20
2023-05-16T02:37:51.391Z,2.08
2023-05-16T02:40:18.151Z,1.70
2023-05-16T02:42:44.824Z,2.45
2023-05-16T02:45:12.144Z,1.42
2023-05-16T02:47:38.796Z,1.92
2023-05-16T02:50:06.257Z,1.70
2023-05-16T02:52:34.314Z,2.28
2023-05-16T02:55:20.204Z,2.15
2023-05-16T02:57:47.560Z,1.80
2023-05-16T03:00:16.242Z,1.90
2023-05-16T03:02:45.367Z,1.40
2023-05-16T03:05:12.305Z,1.95
2023-05-16T03:07:40.084Z,1.60
2023-05-16T03:10:07.542Z,1.83
2023-05-16T03:12:34.299Z,2.58
2023-05-16T03:15:01.777Z,2.03
2023-05-16T03:17:29.392Z,1.52
2023-05-16T03:19:57.227Z,1.75
2023-05-16T03:22:23.908Z,1.88
2023-05-16T03:24:50.609Z,1.52
2023-05-16T03:27:17.270Z,1.88
2023-05-16T03:29:43.938Z,1.73
2023-05-16T03:32:12.021Z,2.13
2023-05-16T03:34:38.744Z,1.23
2023-05-16T03:37:05.815Z,1.52
2023-05-16T03:39:32.519Z,1.70
2023-05-16T03:41:59.188Z,1.77
2023-05-16T03:44:25.836Z,1.88
2023-05-16T03:46:54.094Z,1.70
2023-05-16T03:49:23.689Z,1.48
2023-05-16T03:51:50.359Z,2.55
2023-05-16T03:54:17.269Z,1.75
2023-05-16T03:56:44.138Z,1.55
2023-05-16T03:59:10.751Z,1.40
2023-05-16T04:01:37.493Z,1.90
2023-05-16T04:04:04.417Z,2.00
2023-05-16T04:06:31.853Z,1.50
2023-05-16T04:08:58.611Z,1.92
2023-05-16T04:11:26.505Z,2.63
2023-05-16T04:13:54.091Z,2.58
2023-05-16T04:16:21.004Z,1.52
2023-05-16T04:18:47.701Z,1.27
2023-05-16T04:21:15.333Z,2.30
2023-05-16T04:23:42.433Z,2.00
2023-05-16T04:26:09.137Z,1.67
2023-05-16T04:28:36.100Z,1.65
2023-05-16T04:31:03.148Z,1.63
2023-05-16T04:33:29.963Z,2.05
2023-05-16T04:35:58.455Z,1.85
2023-05-16T04:38:25.182Z,1.75
2023-05-16T04:40:52.027Z,1.85
2023-05-16T04:43:19.884Z,1.58
2023-05-16T04:45:47.135Z,2.20
2023-05-16T04:48:14.040Z,2.20
2023-05-16T04:50:41.091Z,1.85
2023-05-16T04:53:07.962Z,1.50
2023-05-16T04:55:34.658Z,1.40
2023-05-16T04:58:01.342Z,1.35
2023-05-16T05:00:28.721Z,1.90
2023-05-16T05:02:55.692Z,1.80
2023-05-16T05:05:22.527Z,1.58
2023-05-16T05:07:49.329Z,2.25
2023-05-16T05:10:16.036Z,2.45
2023-05-16T05:12:42.658Z,2.33
2023-05-16T05:15:09.560Z,1.80
2023-05-16T05:17:37.713Z,1.45
2023-05-16T05:20:08.538Z,1.48
2023-05-16T05:22:35.360Z,2.05
2023-05-16T05:25:02.079Z,1.77
2023-05-16T05:27:28.899Z,1.58
2023-05-16T05:29:56.065Z,1.40
2023-05-16T05:32:22.720Z,1.65
2023-05-16T05:34:49.449Z,1.48
2023-05-16T05:37:16.135Z,1.58
2023-05-16T05:39:42.788Z,1.23
2023-05-16T05:42:09.602Z,1.50
2023-05-16T05:44:37.624Z,1.50
2023-05-16T05:47:06.149Z,1.98
2023-05-16T05:49:33.543Z,1.23
2023-05-16T05:52:00.240Z,1.27
2023-05-16T05:54:27.118Z,1.50
2023-05-16T05:56:53.774Z,1.80
2023-05-16T05:59:20.443Z,1.30
2023-05-16T06:01:47.173Z,1.90
2023-05-16T06:04:13.893Z,1.48
2023-05-16T06:06:40.603Z,1.80
2023-05-16T06:09:07.341Z,1.42
2023-05-16T06:11:34.062Z,1.50
2023-05-16T06:14:00.839Z,1.30
2023-05-16T06:16:27.546Z,1.88
2023-05-16T06:18:54.284Z,1.77
2023-05-16T06:21:20.958Z,1.60
2023-05-16T06:23:47.807Z,1.48
2023-05-16T06:26:14.556Z,1.30
2023-05-16T06:28:41.200Z,1.30
2023-05-16T06:31:08.048Z,1.42
2023-05-16T06:33:34.935Z,1.38
2023-05-16T06:36:01.724Z,1.20
2023-05-16T06:38:28.367Z,1.75
2023-05-16T06:40:55.082Z,1.50
2023-05-16T06:43:21.816Z,1.33
2023-05-16T06:45:48.537Z,1.30
2023-05-16T06:48:15.839Z,1.38
2023-05-16T06:50:42.638Z,1.27
2023-05-16T06:53:09.473Z,1.40
2023-05-16T06:55:36.152Z,1.55
2023-05-16T06:58:03.071Z,1.58
2023-05-16T07:00:30.919Z,1.52
2023-05-16T07:02:57.835Z,1.60
2023-05-16T07:05:24.656Z,1.80
2023-05-16T07:07:51.404Z,0.95
2023-05-16T07:10:18.220Z,1.30
2023-05-16T07:12:44.919Z,1.75
2023-05-16T07:15:11.907Z,1.50
2023-05-16T07:17:38.760Z,1.02
2023-05-16T07:20:06.855Z,1.17
2023-05-16T07:22:33.729Z,1.30
2023-05-16T07:25:01.322Z,1.70
2023-05-16T07:27:28.420Z,1.70
2023-05-16T07:29:55.270Z,1.52
2023-05-16T07:32:22.202Z,1.55
2023-05-16T07:34:49.007Z,1.25
2023-05-16T07:37:16.307Z,1.17
2023-05-16T07:39:43.143Z,1.40
2023-05-16T07:42:10.143Z,1.33
2023-05-16T07:44:36.892Z,1.48
2023-05-16T07:47:03.648Z,1.00
2023-05-16T07:49:30.399Z,0.88
2023-05-16T07:51:57.115Z,1.02
2023-05-16T07:54:23.875Z,1.50
2023-05-16T07:56:50.863Z,0.95
2023-05-16T07:59:17.659Z,0.85
2023-05-16T08:01:44.486Z,0.80
2023-05-16T08:04:11.547Z,1.10
2023-05-16T08:06:38.335Z,1.00
2023-05-16T08:09:05.012Z,1.10
2023-05-16T08:11:31.671Z,1.08
2023-05-16T08:13:58.409Z,1.00
2023-05-16T08:16:25.155Z,1.17
2023-05-16T08:18:52.064Z,0.95
2023-05-16T08:21:18.821Z,0.88
2023-05-16T08:23:45.521Z,1.00
2023-05-16T08:26:12.710Z,1.00
2023-05-16T08:28:39.499Z,1.00
2023-05-16T08:31:08.349Z,1.45
2023-05-16T08:33:35.654Z,1.02
2023-05-16T08:36:02.510Z,1.67
2023-05-16T08:38:29.394Z,1.27
2023-05-16T08:40:56.223Z,1.45
2023-05-16T08:43:23.480Z,1.05
2023-05-16T08:45:50.450Z,1.20
2023-05-16T08:48:18.837Z,1.15
2023-05-16T08:50:46.260Z,1.02
2023-05-16T08:53:17.468Z,0.88
2023-05-16T08:55:45.656Z,1.15
2023-05-16T08:58:14.596Z,0.80
2023-05-16T09:00:42.042Z,1.10
2023-05-16T09:03:09.779Z,1.27
2023-05-16T09:05:37.046Z,0.80
2023-05-16T09:08:03.805Z,0.65
2023-05-16T09:10:30.678Z,0.85
2023-05-16T09:12:57.448Z,0.90
2023-05-16T09:15:31.220Z,1.05
2023-05-16T09:18:01.309Z,0.73
2023-05-16T09:20:28.253Z,0.80
2023-05-16T09:22:59.866Z,0.90
2023-05-16T09:25:30.900Z,1.10
2023-05-16T09:28:01.430Z,1.13
2023-05-16T09:30:31.663Z,0.90
2023-05-16T09:32:59.111Z,1.20
2023-05-16T09:35:42.958Z,0.88
2023-05-16T09:38:17.418Z,0.80
2023-05-16T09:40:45.625Z,0.93
2023-05-16T09:43:16.837Z,1.10
2023-05-16T09:45:49.005Z,1.10
2023-05-16T09:48:17.002Z,0.82
2023-05-16T09:50:51.032Z,0.77
2023-05-16T09:53:18.427Z,0.85
2023-05-16T09:55:45.112Z,0.82
2023-05-16T09:58:11.845Z,0.80
2023-05-16T10:00:41.028Z,0.77
2023-05-16T10:03:08.645Z,0.85
2023-05-16T10:05:36.793Z,0.90
2023-05-16T10:08:04.461Z,0.90
2023-05-16T10:10:34.937Z,0.90
2023-05-16T10:13:04.908Z,0.75
2023-05-16T10:15:32.199Z,1.00
2023-05-16T10:18:00.659Z,0.98
2023-05-16T10:20:27.644Z,1.00
2023-05-16T10:22:56.639Z,0.90
2023-05-16T10:25:32.398Z,0.90
2023-05-16T10:28:00.057Z,0.90
2023-05-16T10:30:27.168Z,0.70
2023-05-16T10:32:54.749Z,0.98
2023-05-16T10:35:22.009Z,0.85
2023-05-16T10:37:50.988Z,0.77
2023-05-16T10:40:18.448Z,0.60
2023-05-16T10:42:58.193Z,0.90
2023-05-16T10:45:25.389Z,0.73
2023-05-16T10:47:56.956Z,0.88
2023-05-16T10:50:37.282Z,0.73
2023-05-16T10:53:13.152Z,0.70
2023-05-16T10:55:40.508Z,0.80
2023-05-16T10:58:08.149Z,0.55
2023-05-16T11:00:34.856Z,0.63
2023-05-16T11:03:06.182Z,0.77
2023-05-16T11:05:33.894Z,0.80
2023-05-16T11:08:06.320Z,0.90
2023-05-16T11:10:33.317Z,1.05
2023-05-16T11:13:08.919Z,0.77
2023-05-16T11:15:35.918Z,0.70
2023-05-16T11:18:10.500Z,0.75
2023-05-16T11:20:38.997Z,0.77
2023-05-16T11:23:22.593Z,0.98
2023-05-16T11:25:53.936Z,0.52
2023-05-16T11:28:21.417Z,0.73
2023-05-16T11:30:51.213Z,1.00
2023-05-16T11:33:18.743Z,0.60
2023-05-16T11:36:15.303Z,1.08
2023-05-16T11:38:43.792Z,1.00
2023-05-16T11:41:11.386Z,0.88
2023-05-16T11:43:43.867Z,0.88
2023-05-16T11:46:14.830Z,0.63
2023-05-16T11:48:41.965Z,0.60
2023-05-16T11:51:12.135Z,0.63
2023-05-16T11:53:39.583Z,0.73
2023-05-16T11:56:08.646Z,0.82
2023-05-16T11:58:36.638Z,0.85
2023-05-16T12:01:04.817Z,1.08
2023-05-16T12:03:35.943Z,0.65
2023-05-16T12:06:03.042Z,0.60
2023-05-16T12:08:30.652Z,0.75
2023-05-16T12:10:57.463Z,0.98
2023-05-16T12:13:25.110Z,0.88
2023-05-16T12:15:52.778Z,0.60
2023-05-16T12:18:21.207Z,0.50
2023-05-16T12:20:48.360Z,1.00
2023-05-16T12:23:15.371Z,0.80
2023-05-16T12:25:46.838Z,0.90
2023-05-16T12:28:14.742Z,0.93
2023-05-16T12:30:44.111Z,1.00
2023-05-16T12:33:12.974Z,1.00
2023-05-16T12:35:42.139Z,0.82
2023-05-16T12:38:11.670Z,0.80
2023-05-16T12:40:40.474Z,0.70
2023-05-16T12:43:19.718Z,0.88
2023-05-16T12:45:53.111Z,0.90
2023-05-16T12:48:20.185Z,0.90
2023-05-16T12:50:47.124Z,1.10
2023-05-16T12:53:15.428Z,1.15
2023-05-16T12:55:43.478Z,0.80
2023-05-16T12:58:11.099Z,0.70
2023-05-16T13:00:38.960Z,0.70
2023-05-16T13:03:07.368Z,0.50
2023-05-16T13:05:35.873Z,0.60
2023-05-16T13:08:02.724Z,0.60
2023-05-16T13:10:29.934Z,0.73
2023-05-16T13:12:58.547Z,0.70
2023-05-16T13:15:26.043Z,0.60
2023-05-16T13:17:52.922Z,0.60
2023-05-16T13:20:20.081Z,0.65
2023-05-16T13:22:46.759Z,0.52
2023-05-16T13:25:13.558Z,0.90
2023-05-16T13:27:40.491Z,0.70
2023-05-16T13:30:07.670Z,0.93
2023-05-16T13:32:34.415Z,0.75
2023-05-16T13:35:01.136Z,0.70
2023-05-16T13:37:27.879Z,0.98
2023-05-16T13:39:54.821Z,0.65
2023-05-16T13:42:22.385Z,0.80
2023-05-16T13:44:49.850Z,1.20
2023-05-16T13:47:16.832Z,0.90
2023-05-16T13:49:43.643Z,0.77
2023-05-16T13:52:10.588Z,1.00
2023-05-16T13:54:37.389Z,1.00
2023-05-16T13:57:04.670Z,1.00
2023-05-16T14:00:03.524Z,0.93
2023-05-16T14:02:18.129Z,0.93
2023-05-16T14:04:44.861Z,0.73
2023-05-16T14:07:11.615Z,0.65
2023-05-16T14:09:41.031Z,1.15
2023-05-16T14:12:08.441Z,0.80
2023-05-16T14:14:35.646Z,1.13
2023-05-16T14:17:03.981Z,0.90
2023-05-16T14:19:31.241Z,1.02
2023-05-16T14:21:58.254Z,1.23
2023-05-16T14:24:24.967Z,0.98
2023-05-16T14:26:58.120Z,1.02
2023-05-16T14:29:25.463Z,1.23
2023-05-16T14:31:52.933Z,1.08
2023-05-16T14:34:20.199Z,0.98
2023-05-16T14:36:46.863Z,1.10
2023-05-16T14:39:14.216Z,1.10
2023-05-16T14:41:41.050Z,0.90
2023-05-16T14:44:07.901Z,1.00
2023-05-16T14:46:34.707Z,0.80
2023-05-16T14:49:01.554Z,1.10
2023-05-16T14:51:28.240Z,0.80
2023-05-16T14:53:54.995Z,0.65
2023-05-16T14:56:22.691Z,1.05
2023-05-16T14:58:49.720Z,0.93
2023-05-16T15:01:16.681Z,1.00
2023-05-16T15:03:54.647Z,0.88
2023-05-16T15:06:23.558Z,1.80
2023-05-16T15:08:50.701Z,1.50
2023-05-16T15:11:17.431Z,1.70
2023-05-16T15:13:44.127Z,1.30
2023-05-16T15:16:12.112Z,1.70
2023-05-16T15:18:39.018Z,2.20
2023-05-16T15:21:06.231Z,1.35
2023-05-16T15:23:33.248Z,1.20
2023-05-16T15:25:59.965Z,1.52
2023-05-16T15:28:26.675Z,1.20
2023-05-16T15:30:53.391Z,1.10
2023-05-16T15:33:20.314Z,1.02
2023-05-16T15:35:48.453Z,1.05
2023-05-16T15:38:15.263Z,1.08
2023-05-16T15:40:42.008Z,0.82
2023-05-16T15:43:08.699Z,1.08
2023-05-16T15:45:38.537Z,1.00
2023-05-16T15:48:06.927Z,1.15
2023-05-16T15:50:33.890Z,1.20
2023-05-16T15:53:00.979Z,1.42
2023-05-16T15:55:27.982Z,1.08
2023-05-16T15:57:57.241Z,1.75
2023-05-16T16:00:24.839Z,1.20
2023-05-16T16:02:51.853Z,1.00
2023-05-16T16:05:18.742Z,1.05
2023-05-16T16:07:45.547Z,1.20
2023-05-16T16:10:12.477Z,1.23
2023-05-16T16:12:39.991Z,1.75
2023-05-16T16:15:08.490Z,1.42
2023-05-16T16:17:35.326Z,1.58
2023-05-16T16:20:02.154Z,1.50
2023-05-16T16:22:28.878Z,1.33
2023-05-16T16:24:56.240Z,1.52
2023-05-16T16:27:23.442Z,1.25
2023-05-16T16:29:50.269Z,1.30
2023-05-16T16:32:16.945Z,1.20
2023-05-16T16:34:43.652Z,1.52
2023-05-16T16:37:11.513Z,1.42
2023-05-16T16:39:38.668Z,1.50
2023-05-16T16:42:06.097Z,1.90
2023-05-16T16:44:32.920Z,1.50
2023-05-16T16:46:59.629Z,1.30
2023-05-16T16:49:26.721Z,1.63
2023-05-16T16:51:53.491Z,2.20
2023-05-16T16:54:22.276Z,1.58
2023-05-16T16:56:49.568Z,1.45
2023-05-16T16:59:16.704Z,1.85
2023-05-16T17:01:43.796Z,1.83
2023-05-16T17:04:11.337Z,2.00
2023-05-16T17:06:38.201Z,2.10
2023-05-16T17:09:06.721Z,1.60
2023-05-16T17:11:36.222Z,2.53
2023-05-16T17:14:05.652Z,2.10
2023-05-16T17:16:32.881Z,1.90
2023-05-16T17:18:59.713Z,2.45
2023-05-16T17:21:28.029Z,1.50
2023-05-16T17:23:55.130Z,1.35
2023-05-16T17:26:22.056Z,1.95
2023-05-16T17:28:49.594Z,1.63
2023-05-16T17:31:16.620Z,2.38
2023-05-16T17:33:43.421Z,1.98
2023-05-16T17:36:10.769Z,2.00
2023-05-16T17:38:37.667Z,2.05
2023-05-16T17:41:04.491Z,1.95
2023-05-16T17:43:31.280Z,2.08
2023-05-16T17:45:58.033Z,1.95
2023-05-16T17:48:24.851Z,2.33
2023-05-16T17:50:51.644Z,2.72
2023-05-16T17:53:18.505Z,2.72
2023-05-16T17:55:45.267Z,2.90
2023-05-16T17:58:12.786Z,3.28
2023-05-16T18:00:39.613Z,2.75
2023-05-16T18:03:06.895Z,2.75
2023-05-16T18:05:33.863Z,2.67
2023-05-16T18:08:00.953Z,1.70
2023-05-16T18:10:31.525Z,2.00
2023-05-16T18:13:03.595Z,2.22
2023-05-16T18:15:30.331Z,1.90
2023-05-16T18:17:57.108Z,2.08
2023-05-16T18:20:23.942Z,2.33
2023-05-16T18:22:51.944Z,2.50
2023-05-16T18:25:21.894Z,2.15
2023-05-16T18:27:50.751Z,2.20
2023-05-16T18:30:17.644Z,2.15
2023-05-16T18:32:44.483Z,2.10
2023-05-16T18:35:11.261Z,2.03
2023-05-16T18:37:38.154Z,1.80
2023-05-16T18:40:05.656Z,2.50
2023-05-16T18:42:32.455Z,1.80
2023-05-16T18:44:59.163Z,2.08
2023-05-16T18:47:26.165Z,2.40
2023-05-16T18:49:53.030Z,2.15
2023-05-16T18:52:20.415Z,2.28
2023-05-16T18:54:47.195Z,2.13
2023-05-16T18:57:14.016Z,2.30
2023-05-16T18:59:40.824Z,2.75
2023-05-16T19:02:07.788Z,2.28
2023-05-16T19:04:34.706Z,2.25
2023-05-16T19:07:03.924Z,1.95
2023-05-16T19:09:32.468Z,2.20
2023-05-16T19:11:59.203Z,2.30
2023-05-16T19:14:27.208Z,2.47
2023-05-16T19:16:53.951Z,2.60
2023-05-16T19:19:21.019Z,2.20
2023-05-16T19:21:48.001Z,2.40
2023-05-16T19:24:15.024Z,1.80
2023-05-16T19:26:41.747Z,2.22
2023-05-16T19:29:10.005Z,2.22
2023-05-16T19:31:36.841Z,2.28
2023-05-16T19:34:03.614Z,2.25
2023-05-16T19:36:30.858Z,2.20
2023-05-16T19:38:58.779Z,2.15
2023-05-16T19:41:26.246Z,2.45
2023-05-16T19:43:53.236Z,1.98
2023-05-16T19:46:19.997Z,2.28
2023-05-16T19:48:46.742Z,2.17
2023-05-16T19:51:13.599Z,2.05
2023-05-16T19:53:40.866Z,1.50
2023-05-16T19:56:09.545Z,2.35
2023-05-16T19:58:36.252Z,2.20
2023-05-16T20:01:02.944Z,1.85
2023-05-16T20:03:29.803Z,2.17
2023-05-16T20:05:56.659Z,1.98
2023-05-16T20:08:23.375Z,1.88
2023-05-16T20:10:50.247Z,2.20
2023-05-16T20:13:20.262Z,2.05
2023-05-16T20:15:47.747Z,2.30
2023-05-16T20:18:14.982Z,2.13
2023-05-16T20:20:41.800Z,1.98
2023-05-16T20:23:08.463Z,2.22
2023-05-16T20:25:35.396Z,3.13
2023-05-16T20:28:02.288Z,1.98
2023-05-16T20:30:30.083Z,2.35
2023-05-16T20:32:57.522Z,2.20
2023-05-16T20:35:24.497Z,2.38
2023-05-16T20:37:51.246Z,2.30
2023-05-16T20:40:18.013Z,2.00
2023-05-16T20:42:44.863Z,2.33
2023-05-16T20:45:11.598Z,2.63
2023-05-16T20:47:38.522Z,2.63
2023-05-16T20:50:05.964Z,2.10
2023-05-16T20:52:32.762Z,2.55
2023-05-16T20:55:01.132Z,2.17
2023-05-16T20:57:28.041Z,2.25
2023-05-16T20:59:54.894Z,2.22
2023-05-16T21:02:21.540Z,2.63
2023-05-16T21:04:48.249Z,2.53
2023-05-16T21:07:14.942Z,2.25
2023-05-16T21:09:41.634Z,2.20
2023-05-16T21:12:08.471Z,1.88
2023-05-16T21:14:35.207Z,1.80
2023-05-16T21:17:01.970Z,2.22
2023-05-16T21:19:33.861Z,2.03
2023-05-16T21:22:03.192Z,2.40
2023-05-16T21:24:30.146Z,2.28
2023-05-16T21:26:56.873Z,2.42
2023-05-16T21:29:23.588Z,2.00
2023-05-16T21:31:50.330Z,2.28
2023-05-16T21:34:17.066Z,2.13
2023-05-16T21:36:43.759Z,2.03
2023-05-16T21:39:10.710Z,2.15
2023-05-16T21:41:37.466Z,2.08
2023-05-16T21:44:04.353Z,2.20
2023-05-16T21:46:31.055Z,2.47
2023-05-16T21:48:57.937Z,1.98
2023-05-16T21:51:24.920Z,2.50
2023-05-16T21:53:51.620Z,2.17
2023-05-16T21:56:18.687Z,1.73
2023-05-16T21:58:45.437Z,1.73
2023-05-16T22:01:12.844Z,1.67
2023-05-16T22:03:39.668Z,1.90
2023-05-16T22:06:06.450Z,1.73
2023-05-16T22:08:33.114Z,1.17
2023-05-16T22:10:59.838Z,1.77
2023-05-16T22:13:26.650Z,1.60
2023-05-16T22:16:03.950Z,1.60
2023-05-16T22:18:32.878Z,1.50
2023-05-16T22:21:00.056Z,1.25
2023-05-16T22:23:27.599Z,1.40
2023-05-16T22:25:54.316Z,1.40
2023-05-16T22:28:21.074Z,1.40
2023-05-16T22:30:47.786Z,1.52
2023-05-16T22:33:14.587Z,1.50
2023-05-16T22:35:41.327Z,1.35
2023-05-16T22:38:08.020Z,2.13
2023-05-16T22:40:34.711Z,1.77
2023-05-16T22:43:01.366Z,1.40
2023-05-16T22:45:28.210Z,1.52
2023-05-16T22:47:55.107Z,1.20
2023-05-16T22:50:21.857Z,1.50
2023-05-16T22:52:48.589Z,1.73
2023-05-16T22:55:15.486Z,1.50
2023-05-16T22:57:42.843Z,1.20
2023-05-16T23:00:10.020Z,1.48
2023-05-16T23:02:36.767Z,1.60
2023-05-16T23:05:04.106Z,1.70
2023-05-16T23:07:31.090Z,1.60
2023-05-16T23:09:57.846Z,1.40
2023-05-16T23:12:25.200Z,1.90
2023-05-16T23:14:52.036Z,1.58
2023-05-16T23:17:18.723Z,1.52
2023-05-16T23:19:45.673Z,1.60
2023-05-16T23:22:12.400Z,2.22
2023-05-16T23:24:39.280Z,1.67
2023-05-16T23:27:06.199Z,1.70
2023-05-16T23:29:32.928Z,1.70
2023-05-16T23:31:59.829Z,1.90
2023-05-16T23:34:26.603Z,1.75
2023-05-16T23:36:53.305Z,1.73
2023-05-16T23:39:21.323Z,1.92
2023-05-16T23:41:48.023Z,1.85
2023-05-16T23:44:14.725Z,2.10
2023-05-16T23:46:41.422Z,2.13
2023-05-16T23:49:08.181Z,2.13
2023-05-16T23:51:52.246Z,1.98
2023-05-16T23:54:21.731Z,2.15
2023-05-16T23:56:48.552Z,2.17
2023-05-16T23:59:16.285Z,2.05
